Tiempo atmosférico en la estación meteorológica de Barcelona, Museo Marítimo, Barcelona (37 m.)



Fecha
DESCASC
Temp. máxima en grados centígrados (hora)
DESCASC
Temp. mínima en grados centígrados (hora)
DESCASC
Temp. media en grados centígrados
DESCASC
Racha de viento máxima en m/sg (hora)
DESCASC
Velocidad máxima media en intervalos de 10 minutos(hora)
DESCASC
Precipitaciones diarias en mm
DESCASC
Precipitaciones de 00:00 a 06:00 en mm
DESCASC
Precipitaciones de 06:00 a 12:00 en mm
DESCASC
Precipitaciones de 12:00 a 18:00 en mm
DESCASC
Precipitaciones de 18:00 a 24:00 en mm
DESCASC
06-07-2020 -- (--) -- (--) -- 5.83 (18:10) 2.78 (16:30) 0 0 0 0 0
05-07-2020 -- (--) -- (--) -- 8.89 (18:50) 4.72 (17:50) 0 0 0 0 0
04-07-2020 -- (--) -- (--) -- 6.94 (16:10) 3.33 (16:10) 0.6 0.6 0 0 0
03-07-2020 -- (--) -- (--) -- 8.89 (22:40) 3.89 (18:40) 17.4 17.2 0.2 0 0
02-07-2020 -- (--) -- (--) -- 7.5 (14:40) 4.17 (13:40) 0 0 0 0 0
01-07-2020 -- (--) -- (--) -- 4.44 (16:10) 2.5 (11:30) 0 0 0 0 0
30-06-2020 -- (--) -- (--) -- 5 (18:20) 2.22 (18:20) 0 0 0 0 0
29-06-2020 -- (--) -- (--) -- 5.28 (20:40) 2.22 (10:00) 0 0 0 0 0
28-06-2020 -- (--) -- (--) -- 6.67 (17:30) 3.89 (15:40) 0 0 0 0 0
27-06-2020 -- (--) -- (--) -- 5.28 (13:20) 2.5 (11:00) 0 0 0 0 0
26-06-2020 -- (--) -- (--) -- 5.28 (15:30) 2.5 (17:50) 0 0 0 0 0
25-06-2020 -- (--) -- (--) -- 5.28 (11:30) 2.78 (11:30) 0 0 0 0 0
24-06-2020 -- (--) -- (--) -- 6.39 (17:20) 3.06 (17:10) 0 0 0 0 0
23-06-2020 -- (--) -- (--) -- -- (--) -- (--) -- -- -- 0 0
22-06-2020 -- (--) -- (--) -- -- (--) -- (--) -- -- -- -- --
21-06-2020 -- (--) -- (--) -- -- (--) -- (--) -- -- -- -- --
20-06-2020 -- (--) -- (--) -- -- (--) -- (--) -- -- -- -- --
19-06-2020 -- (--) -- (--) -- -- (--) -- (--) -- -- -- -- --
18-06-2020 -- (--) -- (--) -- -- (--) -- (--) -- -- -- -- --
17-06-2020 -- (--) -- (--) -- -- (--) -- (--) -- -- -- -- --
16-06-2020 -- (--) -- (--) -- -- (--) -- (--) -- -- -- -- --
15-06-2020 -- (--) -- (--) -- -- (--) -- (--) -- -- -- -- --
14-06-2020 -- (--) -- (--) -- -- (--) -- (--) -- -- -- -- --
13-06-2020 -- (--) -- (--) -- -- (--) -- (--) -- -- -- -- --
12-06-2020 -- (--) -- (--) -- -- (--) -- (--) -- -- -- -- --
11-06-2020 -- (--) -- (--) -- -- (--) -- (--) -- -- -- -- --
10-06-2020 -- (--) -- (--) -- -- (--) -- (--) -- -- -- -- --

Gráficas

Temp. máximas Temp. mínimas Temp. medias Precipitaciones Rachas de viento máximas Velocidades máximas media en intervalos de 10 minutos

Datos horarios

Fecha y hora oficial Temperatura (ºC) Velocidad del viento (km/h) Dirección del viento Racha (km/h) Dirección de racha Precipitación (mm) Presión (hPa) Tendencia (hPa) Humedad (%)
2020-07-09 23:00:00 25.3 3 Sudeste 9 Nordeste 0 -- -- 69
2020-07-09 22:00:00 25.5 5 Este 12 Nordeste 0 -- -- 68
2020-07-09 21:00:00 26.1 5 Este 13 Sudeste 0 -- -- 67
2020-07-09 20:00:00 26.9 3 Nordeste 12 Sudeste 0 -- -- 57
2020-07-09 19:00:00 28.5 4 Este 14 Este 0 -- -- 56
2020-07-09 18:00:00 29.5 6 Oeste 18 Sudoeste 0 -- -- 48
2020-07-09 17:00:00 28.5 9 Oeste 23 Oeste 0 -- -- 54
2020-07-09 16:00:00 28.2 5 Norte 19 Sudeste 0 -- -- 69
2020-07-09 15:00:00 28 7 Sudeste 19 Sudeste 0 -- -- 70
2020-07-09 14:00:00 28.9 5 Este 21 Sudoeste 0 -- -- 63
2020-07-09 13:00:00 28.3 9 Sudoeste 22 Sudoeste 0 -- -- 63
2020-07-09 12:00:00 28.3 3 Este 15 Sudeste 0 -- -- 68
2020-07-09 11:00:00 27.6 4 Nordeste 10 Este 0 -- -- 68
2020-07-09 10:00:00 26 5 Oeste 14 Oeste 0 -- -- 72
2020-07-09 09:00:00 24.7 4 Este 10 Este 0 -- -- 73
2020-07-09 08:00:00 23.3 0 Calma 10 Nordeste 0.6 -- -- 79
2020-07-09 07:00:00 23.3 3 Sudoeste 10 Oeste 0 -- -- 75
2020-07-09 06:00:00 23.7 4 Oeste 9 Oeste 0 -- -- 76
2020-07-09 05:00:00 23.8 6 Oeste 11 Oeste 0 -- -- 75
2020-07-09 04:00:00 23.8 0 Calma 8 Oeste 0 -- -- 74
2020-07-09 03:00:00 24.2 4 Oeste 14 Oeste 0 -- -- 71
2020-07-09 02:00:00 24.2 2 Sudeste 6 Oeste 0 -- -- 71
2020-07-09 01:00:00 24.5 0 Calma 8 Nordeste 0 -- -- 69
2020-07-09 00:00:00 25 3 Este 9 Este 0 -- -- 66
2020-07-08 23:00:00 25.4 5 Oeste 14 Oeste 0 -- -- 65
2020-07-08 22:00:00 25.1 8 Oeste 15 Sudoeste 0 -- -- 74
2020-07-08 21:00:00 25.4 7 Oeste 15 Sudoeste 0 -- -- 70
2020-07-08 20:00:00 25.8 6 Oeste 13 Sudoeste 0 -- -- 67
2020-07-08 19:00:00 26.9 4 Este 14 Sudeste 0 -- -- 66
2020-07-08 18:00:00 27.7 4 Este 14 Sudeste 0 -- -- 67
2020-07-08 17:00:00 28 6 Nordeste 22 Oeste 0 -- -- 68
2020-07-08 16:00:00 27.9 6 Oeste 20 Oeste 0 -- -- 62
2020-07-08 15:00:00 28 5 Nordeste 15 Norte 0 -- -- 66
2020-07-08 14:00:00 27.5 5 Este 18 Sudeste 0 -- -- 69
2020-07-08 13:00:00 27.4 6 Sudeste 19 Sudeste 0 -- -- 68
2020-07-08 12:00:00 27.2 4 Sudoeste 15 Sur 0 -- -- 69
2020-07-08 11:00:00 26.8 5 Sudeste 13 Sudeste 0 -- -- 69
2020-07-08 10:00:00 25.3 3 Este 9 Sudeste 0 -- -- 75
2020-07-08 09:00:00 23.3 4 Sudeste 7 Sudeste 0 -- -- 80
2020-07-08 08:00:00 22.6 2 Sudeste 5 Sudeste 0.4 -- -- 82
2020-07-08 07:00:00 22.3 0 Calma 4 Oeste 0 -- -- 80
2020-07-08 06:00:00 22.5 2 Oeste 4 Sudeste 0 -- -- 83
2020-07-08 05:00:00 22.6 0 Calma 5 Oeste 0 -- -- 81
2020-07-08 04:00:00 23.2 5 Oeste 10 Oeste 0 -- -- 79
2020-07-08 03:00:00 23.2 4 Oeste 8 Oeste 0 -- -- 81
2020-07-08 02:00:00 23.4 5 Oeste 8 Sudoeste 0 -- -- 80
2020-07-08 01:00:00 23.5 4 Oeste 6 Oeste 0 -- -- 79
2020-07-08 00:00:00 23.5 2 Este 6 Sudeste 0 -- -- 79
2020-07-07 23:00:00 23.8 4 Sudeste 12 Sudeste 0 -- -- 77
2020-07-07 22:00:00 24.1 6 Sudeste 12 Sudeste 0 -- -- 77
2020-07-07 21:00:00 24.4 6 Sudeste 15 Sudeste 0 -- -- 77
2020-07-07 20:00:00 25.2 5 Este 18 Sudeste 0 -- -- 73
2020-07-07 19:00:00 26.8 5 Este 14 Noroeste 0 -- -- 69
2020-07-07 18:00:00 26.9 5 Nordeste 15 Este 0 -- -- 67
2020-07-07 17:00:00 27.2 8 Este 19 Sudeste 0 -- -- 68
2020-07-07 16:00:00 27.5 5 Nordeste 14 Este 0 -- -- 66
2020-07-07 15:00:00 27.1 5 Nordeste 18 Sudeste 0 -- -- 66
2020-07-07 14:00:00 27.1 5 Nordeste 15 Sudeste 0 -- -- 66
2020-07-07 13:00:00 27 4 Este 17 Sur 0 -- -- 64
2020-07-07 12:00:00 26.6 4 Nordeste 16 Sudeste 0 -- -- 65
2020-07-07 11:00:00 25.5 8 Sudeste 17 Sudeste 0 -- -- 68
2020-07-07 10:00:00 24.9 4 Este 12 Sudeste 0 -- -- 74
2020-07-07 09:00:00 23.8 5 Oeste 12 Sudeste 0 -- -- 75
2020-07-07 08:00:00 23.4 5 Este 12 Oeste 0.6 -- -- 82
2020-07-07 07:00:00 24 2 Este 12 Este 0 -- -- 82
2020-07-07 06:00:00 24.1 4 Este 10 Este 0 -- -- 83
2020-07-07 05:00:00 24 2 Este 5 Sudeste 0 -- -- 89
2020-07-07 04:00:00 24.3 2 Sudeste 8 Sur 0 -- -- 89
2020-07-07 03:00:00 24.4 4 Oeste 11 Sudoeste 0 -- -- 87
2020-07-07 02:00:00 24.6 6 Sudoeste 10 Sudoeste 0 -- -- 86
2020-07-07 01:00:00 24.6 5 Oeste 9 Oeste 0 -- -- 85
2020-07-07 00:00:00 24.7 4 Oeste 11 Noroeste 0 -- -- 84
2020-07-06 23:00:00 24.8 4 Noroeste 14 Sudoeste 0 -- -- 83
2020-07-06 22:00:00 25 4 Este 16 Sur 0 -- -- 83
2020-07-06 21:00:00 25.4 7 Sudeste 17 Sudeste 0 -- -- 82
2020-07-06 20:00:00 26.3 8 Este 19 Sudeste 0 -- -- 79
2020-07-06 19:00:00 27.5 8 Sudeste 21 Sur 0 -- -- 73
2020-07-06 18:00:00 27.8 9 Sudeste 19 Sudeste 0 -- -- 70
2020-07-06 17:00:00 28 9 Sudeste 20 Sudeste 0 -- -- 71
2020-07-06 16:00:00 28.6 8 Sudeste 18 Sudeste 0 -- -- 72
2020-07-06 15:00:00 28.1 7 Sudeste 16 Este 0 -- -- 74
2020-07-06 14:00:00 28.3 4 Sudeste 16 Sudeste 0 -- -- 67
2020-07-06 13:00:00 27.7 8 Sudeste 15 Sudeste 0 -- -- 71
2020-07-06 12:00:00 27.6 7 Sudeste 17 Sur 0 -- -- 68
2020-07-06 11:00:00 27.3 4 Sudeste 13 Sudeste 0 -- -- 66
2020-07-06 10:00:00 25.6 5 Sudeste 9 Sudeste 0 -- -- 69
2020-07-06 09:00:00 23.5 5 Sudeste 10 Este 0 -- -- 78
2020-07-06 08:00:00 22.9 4 Este 8 Sudeste 0.4 -- -- 81
2020-07-06 07:00:00 22.7 2 Oeste 5 Sudeste 0 -- -- 79
2020-07-06 06:00:00 22.6 0 Calma 4 Oeste 0 -- -- 73
2020-07-06 05:00:00 22.9 0 Calma 2 Oeste 0 -- -- 70
2020-07-06 04:00:00 23.2 0 Calma 3 Sudoeste 0 -- -- 66
2020-07-06 03:00:00 24 3 Oeste 8 Noroeste 0 -- -- 62
2020-07-06 02:00:00 24.4 0 Calma 4 Sudoeste 0 -- -- 62
2020-07-06 01:00:00 25.3 3 Oeste 11 Oeste 0 -- -- 61
2020-07-06 00:00:00 25.3 5 Oeste 9 Noroeste 0 -- -- 63
2020-07-05 23:00:00 25.7 4 Oeste 9 Oeste 0 -- -- 64
2020-07-05 22:00:00 26.2 5 Oeste 14 Sudoeste 0 -- -- 67
2020-07-05 21:00:00 26.9 7 Oeste 24 Oeste 0 -- -- 60
2020-07-05 20:00:00 27.5 13 Oeste 27 Oeste 0 -- -- 57
2020-07-05 19:00:00 28.3 16 Oeste 32 Oeste 0 -- -- 54
2020-07-05 18:00:00 28.8 15 Oeste 31 Oeste 0 -- -- 49
2020-07-05 17:00:00 28.9 16 Oeste 29 Oeste 0 -- -- 53
2020-07-05 16:00:00 29.4 12 Oeste 24 Sudoeste 0 -- -- 49
2020-07-05 15:00:00 28.6 14 Sudoeste 25 Sudoeste 0 -- -- 53
2020-07-05 14:00:00 28.3 6 Oeste 19 Sudoeste 0 -- -- 64
2020-07-05 13:00:00 27.4 10 Oeste 21 Sudoeste 0 -- -- 68
2020-07-05 12:00:00 27.3 6 Sudoeste 18 Oeste 0 -- -- 67
2020-07-05 11:00:00 26.4 5 Sudeste 15 Sudeste 0 -- -- 65
2020-07-05 10:00:00 25.2 6 Sudeste 10 Sudeste 0 -- -- 65
2020-07-05 09:00:00 22.7 5 Oeste 9 Oeste 0.2 -- -- 68
2020-07-05 08:00:00 21.5 4 Oeste 8 Oeste 0.4 -- -- 77
2020-07-05 07:00:00 21.3 2 Este 3 Sudeste 0 -- -- 72
2020-07-05 06:00:00 21.5 0 Calma 5 Noroeste 0 -- -- 68
2020-07-05 05:00:00 22.4 4 Noroeste 6 Noroeste 0 -- -- 62
2020-07-05 04:00:00 21.9 2 Oeste 4 Oeste 0 -- -- 67
2020-07-05 03:00:00 22.3 0 Calma 3 Oeste 0 -- -- 64
2020-07-05 02:00:00 23.1 2 Oeste 6 Oeste 0 -- -- 61
2020-07-05 01:00:00 23.5 3 Oeste 6 Oeste 0 -- -- 60
2020-07-05 00:00:00 23.7 2 Oeste 8 Noroeste 0 -- -- 59
2020-07-04 23:00:00 23.8 3 Sudoeste 9 Oeste 0 -- -- 58
2020-07-04 22:00:00 24.2 3 Oeste 13 Oeste 0 -- -- 57
2020-07-04 21:00:00 25 6 Oeste 18 Oeste 0 -- -- 54
2020-07-04 20:00:00 25.5 9 Sudoeste 18 Sudoeste 0 -- -- 59
2020-07-04 19:00:00 26 8 Oeste 22 Sudoeste 0 -- -- 66
2020-07-04 18:00:00 25.7 9 Sudoeste 24 Sudoeste 0 -- -- 66
2020-07-04 17:00:00 26 7 Oeste 25 Sudoeste 0 -- -- 62
2020-07-04 16:00:00 25.3 10 Sudoeste 22 Sudoeste 0 -- -- 63
2020-07-04 15:00:00 26.1 5 Noroeste 18 Oeste 0 -- -- 61
2020-07-04 14:00:00 26.3 5 Sudeste 14 Oeste 0 -- -- 60
2020-07-04 13:00:00 26.2 4 Este 12 Sudeste 0 -- -- 61
2020-07-04 12:00:00 25.5 4 Este 15 Sudeste 0 -- -- 63
2020-07-04 11:00:00 24.7 6 Sudeste 18 Sudeste 0 -- -- 64
2020-07-04 10:00:00 23 7 Este 22 Sudeste 0 -- -- 73
2020-07-04 09:00:00 22.4 10 Sudeste 24 Sudeste 0 -- -- 76
2020-07-04 08:00:00 21.6 4 Nordeste 14 Nordeste 0.6 -- -- 80
2020-07-04 07:00:00 22 4 Nordeste 13 Nordeste 0 -- -- 83
2020-07-04 06:00:00 22.5 2 Noroeste 7 Este 0 -- -- 83
2020-07-04 05:00:00 22.6 3 Oeste 16 Nordeste 0.6 -- -- 85
2020-07-04 04:00:00 22.9 2 Nordeste 15 Sudoeste 0 -- -- 83
2020-07-04 03:00:00 23.3 7 Oeste 18 Sudoeste 0 -- -- 77
2020-07-04 02:00:00 23.3 4 Oeste 16 Sudoeste 0 -- -- 77
2020-07-04 01:00:00 23.3 4 Oeste 17 Noroeste 0 -- -- 76
2020-07-04 00:00:00 23.5 5 Oeste 23 Sudoeste 0 -- -- 78
2020-07-03 23:00:00 23.6 8 Oeste 32 Sudoeste 0 -- -- 76
2020-07-03 22:00:00 23.6 9 Sudoeste 27 Sudoeste 0 -- -- 75
2020-07-03 21:00:00 23.7 8 Oeste 23 Sudoeste 0 -- -- 74
2020-07-03 20:00:00 23.7 11 Sudoeste 22 Sudoeste 0 -- -- 74
2020-07-03 19:00:00 24.7 13 Oeste 28 Sudoeste 0 -- -- 69
2020-07-03 18:00:00 24.5 13 Oeste 23 Sudoeste 0 -- -- 70
2020-07-03 17:00:00 24.1 10 Oeste 31 Sudoeste 0 -- -- 72
2020-07-03 16:00:00 23.4 9 Oeste 25 Sudoeste 0 -- -- 73
2020-07-03 15:00:00 23.6 8 Oeste 21 Oeste 0 -- -- 71
2020-07-03 14:00:00 24.9 5 Este 18 Sudoeste 0 -- -- 65
2020-07-03 13:00:00 23.9 4 Nordeste 20 Sudeste 0 -- -- 68
2020-07-03 12:00:00 22.7 6 Sudeste 15 Sudeste 0 -- -- 77
2020-07-03 11:00:00 22.2 4 Oeste 13 Nordeste 0 -- -- 67
2020-07-03 10:00:00 21.6 3 Sudoeste 12 Nordeste 0 -- -- 70
2020-07-03 09:00:00 21.2 3 Sudeste 14 Nordeste 0 -- -- 85
2020-07-03 08:00:00 20.8 5 Nordeste 18 Este 0.8 -- -- 87
2020-07-03 07:00:00 21 3 Nordeste 17 Nordeste 0.2 -- -- 84
2020-07-03 06:00:00 21.2 3 Oeste 17 Oeste 14.8 -- -- 90
2020-07-03 05:00:00 24.4 3 Nordeste 15 Nordeste 2.4 -- -- 67
2020-07-03 04:00:00 25.1 5 Este 10 Noroeste 0 -- -- 59
2020-07-03 03:00:00 25 7 Oeste 11 Oeste 0 -- -- 66
2020-07-03 02:00:00 24.8 4 Este 16 Este 0 -- -- 63
2020-07-03 01:00:00 24.8 5 Oeste 8 Oeste 0 -- -- 60
2020-07-03 00:00:00 24.5 3 Este 23 Nordeste 0 -- -- 62
2020-07-02 23:00:00 25.2 3 Este 14 Este 0 -- -- 65
2020-07-02 22:00:00 25.5 5 Este 16 Sudeste 0 -- -- 71
2020-07-02 21:00:00 25.7 7 Este 23 Sudeste 0 -- -- 70
2020-07-02 20:00:00 26.4 8 Sudeste 18 Sur 0 -- -- 67
2020-07-02 19:00:00 27.3 9 Sudeste 22 Sudeste 0 -- -- 65
2020-07-02 18:00:00 27.9 8 Sudeste 18 Sudeste 0 -- -- 70
2020-07-02 17:00:00 28.7 5 Noroeste 22 Sudoeste 0 -- -- 66
2020-07-02 16:00:00 27.6 14 Sudoeste 26 Sudoeste 0 -- -- 70
2020-07-02 15:00:00 28.9 10 Oeste 27 Sudoeste 0 -- -- 66
2020-07-02 14:00:00 28.7 11 Sudoeste 26 Sudoeste 0 -- -- 66
2020-07-02 13:00:00 28.7 12 Sudoeste 24 Sudoeste 0 -- -- 67
2020-07-02 12:00:00 28.3 10 Oeste 22 Sudoeste 0 -- -- 67
2020-07-02 11:00:00 27.2 10 Oeste 21 Sudoeste 0 -- -- 73
2020-07-02 10:00:00 26.8 3 Oeste 11 Oeste 0 -- -- 78
2020-07-02 09:00:00 24.8 6 Oeste 12 Oeste 0 -- -- 82
2020-07-02 08:00:00 24 4 Oeste 8 Noroeste 0.4 -- -- 85
2020-07-02 07:00:00 23.9 0 Calma 7 Este 0 -- -- 85
2020-07-02 06:00:00 24.1 4 Este 13 Este 0 -- -- 84
2020-07-02 05:00:00 24.3 5 Este 10 Este 0 -- -- 84
2020-07-02 04:00:00 24.2 4 Este 9 Sudeste 0 -- -- 86
2020-07-02 03:00:00 24.4 4 Este 9 Sudeste 0 -- -- 85
2020-07-02 02:00:00 24.6 3 Este 8 Sudeste 0 -- -- 86
2020-07-02 01:00:00 24.8 4 Este 12 Sudeste 0 -- -- 85
2020-07-02 00:00:00 25.1 7 Sudeste 15 Sudeste 0 -- -- 84
2020-07-01 23:00:00 25.4 6 Este 15 Sudeste 0 -- -- 84
2020-07-01 22:00:00 25.7 4 Este 10 Sudeste 0 -- -- 83
2020-07-01 21:00:00 26.2 4 Sudeste 14 Oeste 0 -- -- 79
2020-07-01 20:00:00 26.8 6 Sudoeste 14 Sudoeste 0 -- -- 76
2020-07-01 19:00:00 28.3 5 Sudeste 14 Sudeste 0 -- -- 71
2020-07-01 18:00:00 28.6 4 Este 15 Sudeste 0 -- -- 70
2020-07-01 17:00:00 28.7 6 Sudeste 16 Sudeste 0 -- -- 69
2020-07-01 16:00:00 29.2 5 Este 14 Este 0 -- -- 64
2020-07-01 15:00:00 28.7 6 Sudeste 14 Sudeste 0 -- -- 70
2020-07-01 14:00:00 28.9 4 Norte 10 Este 0 -- -- 69
2020-07-01 13:00:00 28.2 4 Este 14 Este 0 -- -- 72
2020-07-01 12:00:00 27.4 8 Sudeste 14 Este 0 -- -- 74
2020-07-01 11:00:00 27.7 6 Sudeste 14 Sudeste 0 -- -- 70
2020-07-01 10:00:00 27.1 5 Sudeste 12 Sudeste 0 -- -- 65
2020-07-01 09:00:00 24.5 5 Este 11 Nordeste 0 -- -- 76
2020-07-01 08:00:00 23.1 3 Este 8 Este 0.4 -- -- 84
2020-07-01 07:00:00 23.5 2 Oeste 6 Oeste 0 -- -- 85
2020-07-01 06:00:00 23.4 3 Oeste 5 Oeste 0 -- -- 85
2020-07-01 05:00:00 23.5 0 Calma 8 Oeste 0 -- -- 86
2020-07-01 04:00:00 23.6 5 Oeste 8 Oeste 0 -- -- 85
2020-07-01 03:00:00 23.7 3 Sudoeste 7 Sudoeste 0 -- -- 85
2020-07-01 02:00:00 24.1 4 Sudoeste 8 Oeste 0 -- -- 85
2020-07-01 01:00:00 24.2 5 Oeste 8 Oeste 0 -- -- 85
2020-07-01 00:00:00 24.2 4 Oeste 9 Sudoeste 0 -- -- 85
2020-06-30 23:00:00 24.4 2 Sudeste 8 Sudeste 0 -- -- 84
2020-06-30 22:00:00 24.8 4 Oeste 13 Sudoeste 0 -- -- 81
2020-06-30 21:00:00 25.2 4 Sudoeste 11 Oeste 0 -- -- 80
2020-06-30 20:00:00 26.1 4 Nordeste 15 Sudoeste 0 -- -- 76
2020-06-30 19:00:00 27.3 7 Oeste 18 Oeste 0 -- -- 71
2020-06-30 18:00:00 28 6 Oeste 17 Sudoeste 0 -- -- 70
2020-06-30 17:00:00 28 5 Nordeste 16 Oeste 0 -- -- 69
2020-06-30 16:00:00 28.2 5 Nordeste 16 Noroeste 0 -- -- 67
2020-06-30 15:00:00 28.6 6 Norte 15 Noroeste 0 -- -- 67
2020-06-30 14:00:00 28.1 7 Noroeste 16 Norte 0 -- -- 67
2020-06-30 13:00:00 27 5 Norte 12 Norte 0 -- -- 70
2020-06-30 12:00:00 25.6 3 Nordeste 15 Oeste 0 -- -- 76
2020-06-30 11:00:00 25 3 Oeste 12 Sudoeste 0 -- -- 77
2020-06-30 10:00:00 24.7 2 Norte 8 Este 0 -- -- 79
2020-06-30 09:00:00 24.3 5 Oeste 12 Sudoeste 0 -- -- 79
2020-06-30 08:00:00 23.9 4 Oeste 11 Sudoeste 0.4 -- -- 83
2020-06-30 07:00:00 23.9 2 Oeste 8 Noroeste 0 -- -- 80
2020-06-30 06:00:00 23.7 3 Oeste 8 Oeste 0 -- -- 81
2020-06-30 05:00:00 23.9 2 Sudoeste 10 Oeste 0 -- -- 80
2020-06-30 04:00:00 23.8 2 Este 5 Sur 0 -- -- 81
2020-06-30 03:00:00 23.9 0 Calma 7 Norte 0 -- -- 81
2020-06-30 02:00:00 24.3 3 Nordeste 8 Norte 0 -- -- 79
2020-06-30 01:00:00 24.6 3 Norte 12 Noroeste 0 -- -- 78
2020-06-30 00:00:00 24.7 4 Norte 11 Norte 0 -- -- 79
2020-06-29 23:00:00 24.9 4 Noroeste 12 Oeste 0 -- -- 77
2020-06-29 22:00:00 25.1 8 Oeste 15 Oeste 0 -- -- 77
2020-06-29 21:00:00 25.7 4 Oeste 19 Sudoeste 0 -- -- 76
2020-06-29 20:00:00 26.2 7 Oeste 16 Oeste 0 -- -- 74
2020-06-29 19:00:00 26.9 5 Oeste 16 Sudoeste 0 -- -- 74
2020-06-29 18:00:00 27.9 4 Norte 14 Noroeste 0 -- -- 70
2020-06-29 17:00:00 28.5 5 Norte 16 Sudoeste 0 -- -- 68
2020-06-29 16:00:00 28.9 4 Este 13 Sudeste 0 -- -- 69
2020-06-29 15:00:00 28.5 5 Noroeste 18 Sudoeste 0 -- -- 70
2020-06-29 14:00:00 28.5 5 Este 15 Sudeste 0 -- -- 68
2020-06-29 13:00:00 28 5 Sudeste 15 Sudeste 0 -- -- 70
2020-06-29 12:00:00 27.8 4 Este 14 Este 0 -- -- 72
2020-06-29 11:00:00 26.8 5 Sudeste 17 Sur 0 -- -- 73
2020-06-29 10:00:00 25.6 8 Sur 13 Sur 0 -- -- 76
2020-06-29 09:00:00 23.6 5 Sudeste 9 Sudeste 0 -- -- 81
2020-06-29 08:00:00 23.1 4 Sudeste 7 Este 0 -- -- 88
2020-06-29 07:00:00 22.9 2 Sudeste 4 Sudeste 0 -- -- 87
2020-06-29 06:00:00 23 0 Calma 4 Noroeste 0 -- -- 87
2020-06-29 05:00:00 23.3 4 Sudeste 6 Sudeste 0 -- -- 85
2020-06-29 04:00:00 23.7 2 Oeste 9 Oeste 0 -- -- 82
2020-06-29 03:00:00 23.8 3 Oeste 9 Sudoeste 0 -- -- 81
2020-06-29 02:00:00 24.3 5 Oeste 9 Oeste 0 -- -- 82
2020-06-29 01:00:00 24.6 6 Oeste 9 Sudoeste 0 -- -- 82
2020-06-29 00:00:00 24.6 6 Oeste 9 Sudoeste 0 -- -- 83
2020-06-28 23:00:00 24.8 6 Oeste 9 Sudoeste 0 -- -- 82
2020-06-28 22:00:00 25 5 Sudoeste 12 Sudoeste 0 -- -- 79
2020-06-28 21:00:00 25.6 8 Oeste 16 Sudoeste 0 -- -- 77
2020-06-28 20:00:00 26.4 10 Oeste 21 Oeste 0 -- -- 71
2020-06-28 19:00:00 27.8 9 Sudoeste 24 Oeste 0 -- -- 66
2020-06-28 18:00:00 27.6 14 Sudoeste 24 Sudoeste 0 -- -- 67
2020-06-28 17:00:00 28 11 Sudoeste 23 Sudoeste 0 -- -- 66
2020-06-28 16:00:00 28.1 8 Sudoeste 24 Sudoeste 0 -- -- 68
2020-06-28 15:00:00 27.9 6 Oeste 22 Sudoeste 0 -- -- 65
2020-06-28 14:00:00 27.9 8 Sudoeste 22 Sudoeste 0 -- -- 69
2020-06-28 13:00:00 27.5 9 Oeste 21 Sudoeste 0 -- -- 69
2020-06-28 12:00:00 27.9 4 Norte 13 Oeste 0 -- -- 69
2020-06-28 11:00:00 27 5 Este 12 Sudeste 0 -- -- 71
2020-06-28 10:00:00 25.5 3 Este 10 Sudeste 0 -- -- 76
2020-06-28 09:00:00 23.3 5 Este 11 Sudeste 0 -- -- 84
2020-06-28 08:00:00 22.7 4 Oeste 6 Sudoeste 0.6 -- -- 84
2020-06-28 07:00:00 23 3 Este 10 Nordeste 0 -- -- 81
2020-06-28 06:00:00 23.2 4 Este 10 Nordeste 0 -- -- 81
2020-06-28 05:00:00 22.8 0 Calma 4 Oeste 0 -- -- 85
2020-06-28 04:00:00 23.1 0 Calma 4 Oeste 0 -- -- 84
2020-06-28 03:00:00 23.4 3 Oeste 8 Sudeste 0 -- -- 82
2020-06-28 02:00:00 23.8 4 Este 9 Sudeste 0 -- -- 81
2020-06-28 01:00:00 23.9 5 Este 12 Sudeste 0 -- -- 81
2020-06-28 00:00:00 24 4 Sudeste 8 Sudeste 0 -- -- 80
2020-06-27 23:00:00 24 4 Este 10 Este 0 -- -- 80
2020-06-27 22:00:00 24.2 3 Este 9 Sudeste 0 -- -- 79
2020-06-27 21:00:00 24.6 3 Este 10 Sudeste 0 -- -- 77
2020-06-27 20:00:00 25 4 Sudeste 13 Sudeste 0 -- -- 76
2020-06-27 19:00:00 26.4 6 Sudeste 15 Este 0 -- -- 71
2020-06-27 18:00:00 26.8 4 Este 16 Sudeste 0 -- -- 69
2020-06-27 17:00:00 27 6 Este 15 Sudeste 0 -- -- 69
2020-06-27 16:00:00 27.4 5 Oeste 17 Sudeste 0 -- -- 69
2020-06-27 15:00:00 27.1 8 Sudeste 18 Sur 0 -- -- 71
2020-06-27 14:00:00 27 6 Sudeste 19 Sudeste 0 -- -- 71
2020-06-27 13:00:00 26.9 7 Sudeste 17 Sudeste 0 -- -- 72
2020-06-27 12:00:00 26.5 6 Este 16 Sudeste 0 -- -- 72
2020-06-27 11:00:00 25.9 9 Sudeste 18 Sur 0 -- -- 72
2020-06-27 10:00:00 25.4 6 Este 14 Sudeste 0 -- -- 76
2020-06-27 09:00:00 24 5 Este 10 Nordeste 0 -- -- 81
2020-06-27 08:00:00 23.1 5 Este 10 Este 0.4 -- -- 82
2020-06-27 07:00:00 23.3 4 Este 8 Este 0 -- -- 78
2020-06-27 06:00:00 23.4 4 Este 13 Nordeste 0 -- -- 71
2020-06-27 05:00:00 23.8 5 Este 10 Este 0 -- -- 73
2020-06-27 04:00:00 24.1 3 Este 8 Sudeste 0 -- -- 87
2020-06-27 03:00:00 23.6 3 Sudeste 6 Sudeste 0 -- -- 76
2020-06-27 02:00:00 23.6 3 Sudeste 10 Sudeste 0 -- -- 63
2020-06-27 01:00:00 24 4 Sudeste 10 Sur 0 -- -- 79
2020-06-27 00:00:00 24.2 3 Sudeste 6 Sudeste 0 -- -- 78
2020-06-26 23:00:00 24.3 2 Sudeste 8 Sudeste 0 -- -- 80
2020-06-26 22:00:00 24.6 4 Sudeste 9 Sudeste 0 -- -- 80
2020-06-26 21:00:00 25 4 Sudeste 13 Sudeste 0 -- -- 77
2020-06-26 20:00:00 25.8 5 Sudeste 14 Sudeste 0 -- -- 77
2020-06-26 19:00:00 26.9 8 Sudeste 17 Sudeste 0 -- -- 73
2020-06-26 18:00:00 27.7 6 Este 18 Sudeste 0 -- -- 69
2020-06-26 17:00:00 27.9 9 Sudeste 18 Sudeste 0 -- -- 65
2020-06-26 16:00:00 28.7 3 Noroeste 19 Sur 0 -- -- 55
2020-06-26 15:00:00 28.5 4 Sudoeste 13 Sudeste 0 -- -- 62
2020-06-26 14:00:00 28.4 4 Sudeste 18 Este 0 -- -- 61
2020-06-26 13:00:00 28 6 Sudeste 13 Sudeste 0 -- -- 62
2020-06-26 12:00:00 28.3 4 Este 10 Oeste 0 -- -- 63
2020-06-26 11:00:00 27.1 5 Sudeste 12 Sudeste 0 -- -- 55
2020-06-26 10:00:00 26.1 3 Este 9 Sudoeste 0 -- -- 60
2020-06-26 09:00:00 23.7 5 Sudeste 8 Sudeste 0 -- -- 70
2020-06-26 08:00:00 22.3 0 Calma 5 Oeste 0.2 -- -- 71
2020-06-26 07:00:00 22.5 0 Calma 5 Norte 0 -- -- 62
2020-06-26 06:00:00 22.8 0 Calma 4 Nordeste 0 -- -- 64
2020-06-26 05:00:00 23.4 3 Noroeste 6 Noroeste 0 -- -- 72
2020-06-26 04:00:00 23.6 3 Oeste 8 Oeste 0 -- -- 68
2020-06-26 03:00:00 24 5 Noroeste 8 Noroeste 0 -- -- 65
2020-06-26 02:00:00 24 2 Oeste 6 Sudeste 0 -- -- 63
2020-06-26 01:00:00 24.3 0 Calma 6 Sudeste 0 -- -- 72
2020-06-26 00:00:00 24.9 3 Oeste 8 Noroeste 0 -- -- 60
2020-06-25 23:00:00 25.1 3 Oeste 9 Oeste 0 -- -- 63
2020-06-25 22:00:00 25.4 4 Sudoeste 9 Noroeste 0 -- -- 60
2020-06-25 21:00:00 25.8 4 Oeste 17 Sudoeste 0 -- -- 61
2020-06-25 20:00:00 26.3 5 Oeste 13 Sudoeste 0 -- -- 55
2020-06-25 19:00:00 27.6 6 Sudeste 13 Este 0 -- -- 50
2020-06-25 18:00:00 27.6 5 Este 15 Sudeste 0 -- -- 55
2020-06-25 17:00:00 27.5 4 Este 14 Sudeste 0 -- -- 62
2020-06-25 16:00:00 27.6 6 Sudeste 14 Sudeste 0 -- -- 62
2020-06-25 15:00:00 27.1 7 Sudeste 15 Sudeste 0 -- -- 67
2020-06-25 14:00:00 27.1 5 Este 15 Este 0 -- -- 71
2020-06-25 13:00:00 27.6 5 Noroeste 17 Sudeste 0 -- -- 69
2020-06-25 12:00:00 26.8 7 Sudeste 19 Sudeste 0 -- -- 70
2020-06-25 11:00:00 26.4 5 Sudeste 14 Sudeste 0 -- -- 66
2020-06-25 10:00:00 25.3 5 Sudeste 12 Sudeste 0 -- -- 72
2020-06-25 09:00:00 23.4 3 Sur 8 Sudoeste 0 -- -- 74
2020-06-25 08:00:00 22.6 3 Oeste 6 Sudoeste 0.4 -- -- 72
2020-06-25 07:00:00 22.3 2 Oeste 5 Oeste 0 -- -- 77
2020-06-25 06:00:00 22.6 2 Este 9 Nordeste 0 -- -- 77
2020-06-25 05:00:00 23 5 Este 13 Este 0 -- -- 76
2020-06-25 04:00:00 22.8 0 Calma 5 Sudoeste 0 -- -- 82
2020-06-25 03:00:00 23.3 2 Sudoeste 8 Oeste 0 -- -- 80
2020-06-25 02:00:00 23.6 4 Oeste 11 Sudoeste 0 -- -- 79
2020-06-25 01:00:00 23.7 6 Oeste 12 Oeste 0 -- -- 78
2020-06-25 00:00:00 23.7 4 Oeste 9 Oeste 0 -- -- 77
2020-06-24 23:00:00 23.9 4 Oeste 8 Oeste 0 -- -- 77
2020-06-24 22:00:00 24.2 6 Oeste 13 Oeste 0 -- -- 75
2020-06-24 21:00:00 24.9 6 Oeste 12 Sudoeste 0 -- -- 69
2020-06-24 20:00:00 25.8 5 Sudoeste 12 Oeste 0 -- -- 70
2020-06-24 19:00:00 26.8 8 Sudoeste 16 Sudoeste 0 -- -- 66
2020-06-24 18:00:00 27.8 7 Sudoeste 23 Sudoeste 0 -- -- 63
2020-06-24 17:00:00 27.6 10 Oeste 20 Oeste 0 -- -- 64
2020-06-24 16:00:00 27.7 5 Oeste 22 Sudoeste 0 -- -- 67
2020-06-24 15:00:00 27.6 5 Sur 19 Sudoeste 0 -- -- 68
2020-06-24 14:00:00 27.4 5 Norte 14 Oeste 0 -- -- 70
2020-06-24 13:00:00 27.1 6 Sudoeste 22 Sudoeste 0 -- -- 63
2020-06-24 12:00:00 26.9 8 Oeste 19 Sudoeste 0 -- -- 66
2020-06-24 11:00:00 25.8 9 Oeste 19 Noroeste 0 -- -- 64
2020-06-24 10:00:00 24.5 6 Oeste 16 Sudoeste 0 -- -- 72
2020-06-24 09:00:00 22.8 7 Oeste 13 Oeste 0 -- -- 79
2020-06-24 08:00:00 21.8 5 Oeste 9 Noroeste 0 -- -- 81
2020-06-24 07:00:00 21.4 3 Oeste 6 Oeste 0 -- -- 80
2020-06-24 06:00:00 21.4 4 Oeste 8 Oeste 0 -- -- 77
2020-06-24 05:00:00 21.6 4 Oeste 8 Oeste 0 -- -- 77
2020-06-24 04:00:00 21.8 5 Oeste 9 Oeste 0 -- -- 83
2020-06-24 03:00:00 22 5 Oeste 12 Oeste 0 -- -- 85
2020-06-24 02:00:00 22.4 9 Oeste 15 Oeste 0 -- -- 85
2020-06-24 01:00:00 22.8 4 Oeste 12 Sudoeste 0 -- -- 84
2020-06-24 00:00:00 23.1 5 Oeste 12 Oeste 0 -- -- 82
2020-06-23 23:00:00 23.5 5 Oeste 11 Sudoeste 0 -- -- 79
2020-06-23 22:00:00 24.1 6 Oeste 14 Sur 0 -- -- 73
2020-06-23 21:00:00 25 8 Oeste 18 Oeste 0 -- -- 68
2020-06-23 20:00:00 25.9 11 Oeste 27 Oeste 0 -- -- 60
2020-06-23 19:00:00 26.8 11 Oeste 29 Sudoeste 0 -- -- 60
2020-06-23 18:00:00 27.1 14 Oeste 31 Oeste 0 -- -- 59
2020-06-23 17:00:00 26.9 17 Oeste 35 Oeste 0 -- -- 61
2020-06-23 16:00:00 27.1 15 Oeste 33 Oeste 0 -- -- 63
2020-06-23 15:00:00 26.9 21 Oeste 35 Oeste 0 -- -- 61
2020-06-23 14:00:00 27 17 Oeste 34 Sudoeste 0 -- -- 63
2020-06-23 13:00:00 27.2 15 Oeste 28 Sudoeste 0 -- -- 57
2020-06-23 12:00:00 26.9 11 Sudoeste 21 Sudoeste 0 -- -- 65
2020-06-23 11:00:00 26.3 7 Oeste 15 Oeste 0 -- -- 67
2020-06-23 10:00:00 25.1 7 Oeste -- -- -- -- -- 65
2020-06-23 09:00:00 -- -- -- -- -- -- -- -- --
2020-06-23 08:00:00 -- -- -- -- -- -- -- -- --
2020-06-23 07:00:00 -- -- -- -- -- -- -- -- --
2020-06-23 06:00:00 -- -- -- -- -- -- -- -- --
2020-06-23 05:00:00 -- -- -- -- -- -- -- -- --
2020-06-23 04:00:00 -- -- -- -- -- -- -- -- --
2020-06-23 03:00:00 -- -- -- -- -- -- -- -- --
2020-06-23 02:00:00 -- -- -- -- -- -- -- -- --
2020-06-23 01:00:00 -- -- -- -- -- -- -- -- --
2020-06-23 00:00:00 -- -- -- -- -- -- -- -- --
2020-06-22 23:00:00 -- -- -- -- -- -- -- -- --
2020-06-22 22:00:00 -- -- -- -- -- -- -- -- --
2020-06-22 21:00:00 -- -- -- -- -- -- -- -- --
2020-06-22 20:00:00 -- -- -- -- -- -- -- -- --
2020-06-22 19:00:00 -- -- -- -- -- -- -- -- --
2020-06-22 18:00:00 -- -- -- -- -- -- -- -- --
2020-06-22 17:00:00 -- -- -- -- -- -- -- -- --
2020-06-22 16:00:00 -- -- -- -- -- -- -- -- --
2020-06-22 15:00:00 -- -- -- -- -- -- -- -- --
2020-06-22 14:00:00 -- -- -- -- -- -- -- -- --
2020-06-22 13:00:00 -- -- -- -- -- -- -- -- --
2020-06-22 12:00:00 -- -- -- -- -- -- -- -- --
2020-06-22 11:00:00 -- -- -- -- -- -- -- -- --
2020-06-22 10:00:00 -- -- -- -- -- -- -- -- --
2020-06-22 09:00:00 -- -- -- -- -- -- -- -- --
2020-06-22 08:00:00 -- -- -- -- -- -- -- -- --
2020-06-22 07:00:00 -- -- -- -- -- -- -- -- --
2020-06-22 06:00:00 -- -- -- -- -- -- -- -- --
2020-06-22 05:00:00 -- -- -- -- -- -- -- -- --
2020-06-22 04:00:00 -- -- -- -- -- -- -- -- --
2020-06-22 03:00:00 -- -- -- -- -- -- -- -- --
2020-06-22 02:00:00 -- -- -- -- -- -- -- -- --
2020-06-22 01:00:00 -- -- -- -- -- -- -- -- --
2020-06-22 00:00:00 -- -- -- -- -- -- -- -- --
2020-06-21 23:00:00 -- -- -- -- -- -- -- -- --
2020-06-21 22:00:00 -- -- -- -- -- -- -- -- --
2020-06-21 21:00:00 -- -- -- -- -- -- -- -- --
2020-06-21 20:00:00 -- -- -- -- -- -- -- -- --
2020-06-21 19:00:00 -- -- -- -- -- -- -- -- --
2020-06-21 18:00:00 -- -- -- -- -- -- -- -- --
2020-06-21 17:00:00 -- -- -- -- -- -- -- -- --
2020-06-21 16:00:00 -- -- -- -- -- -- -- -- --
2020-06-21 15:00:00 -- -- -- -- -- -- -- -- --
2020-06-21 14:00:00 -- -- -- -- -- -- -- -- --
2020-06-21 13:00:00 -- -- -- -- -- -- -- -- --
2020-06-21 12:00:00 -- -- -- -- -- -- -- -- --
2020-06-21 11:00:00 -- -- -- -- -- -- -- -- --
2020-06-21 10:00:00 -- -- -- -- -- -- -- -- --
2020-06-21 09:00:00 -- -- -- -- -- -- -- -- --
2020-06-21 08:00:00 -- -- -- -- -- -- -- -- --
2020-06-21 07:00:00 -- -- -- -- -- -- -- -- --
2020-06-21 06:00:00 -- -- -- -- -- -- -- -- --
2020-06-21 05:00:00 -- -- -- -- -- -- -- -- --
2020-06-21 04:00:00 -- -- -- -- -- -- -- -- --
2020-06-21 03:00:00 -- -- -- -- -- -- -- -- --
2020-06-21 02:00:00 -- -- -- -- -- -- -- -- --
2020-06-21 01:00:00 -- -- -- -- -- -- -- -- --
2020-06-21 00:00:00 -- -- -- -- -- -- -- -- --
2020-06-20 23:00:00 -- -- -- -- -- -- -- -- --
2020-06-20 22:00:00 -- -- -- -- -- -- -- -- --
2020-06-20 21:00:00 -- -- -- -- -- -- -- -- --
2020-06-20 20:00:00 -- -- -- -- -- -- -- -- --
2020-06-20 19:00:00 -- -- -- -- -- -- -- -- --
2020-06-20 18:00:00 -- -- -- -- -- -- -- -- --
2020-06-20 17:00:00 -- -- -- -- -- -- -- -- --
2020-06-20 16:00:00 -- -- -- -- -- -- -- -- --
2020-06-20 15:00:00 -- -- -- -- -- -- -- -- --
2020-06-20 14:00:00 -- -- -- -- -- -- -- -- --
2020-06-20 13:00:00 -- -- -- -- -- -- -- -- --
2020-06-20 12:00:00 -- -- -- -- -- -- -- -- --
2020-06-20 11:00:00 -- -- -- -- -- -- -- -- --
2020-06-20 10:00:00 -- -- -- -- -- -- -- -- --
2020-06-20 09:00:00 -- -- -- -- -- -- -- -- --
2020-06-20 08:00:00 -- -- -- -- -- -- -- -- --
2020-06-20 07:00:00 -- -- -- -- -- -- -- -- --
2020-06-20 06:00:00 -- -- -- -- -- -- -- -- --
2020-06-20 05:00:00 -- -- -- -- -- -- -- -- --
2020-06-20 04:00:00 -- -- -- -- -- -- -- -- --
2020-06-20 03:00:00 -- -- -- -- -- -- -- -- --
2020-06-20 02:00:00 -- -- -- -- -- -- -- -- --
2020-06-20 01:00:00 -- -- -- -- -- -- -- -- --
2020-06-20 00:00:00 -- -- -- -- -- -- -- -- --
2020-06-19 23:00:00 -- -- -- -- -- -- -- -- --
2020-06-19 22:00:00 -- -- -- -- -- -- -- -- --
2020-06-19 21:00:00 -- -- -- -- -- -- -- -- --
2020-06-19 20:00:00 -- -- -- -- -- -- -- -- --
2020-06-19 19:00:00 -- -- -- -- -- -- -- -- --
2020-06-19 18:00:00 -- -- -- -- -- -- -- -- --
2020-06-19 17:00:00 -- -- -- -- -- -- -- -- --
2020-06-19 16:00:00 -- -- -- -- -- -- -- -- --
2020-06-19 15:00:00 -- -- -- -- -- -- -- -- --
2020-06-19 14:00:00 -- -- -- -- -- -- -- -- --
2020-06-19 13:00:00 -- -- -- -- -- -- -- -- --
2020-06-19 12:00:00 -- -- -- -- -- -- -- -- --
2020-06-19 11:00:00 -- -- -- -- -- -- -- -- --
2020-06-19 10:00:00 -- -- -- -- -- -- -- -- --
2020-06-19 09:00:00 -- -- -- -- -- -- -- -- --
2020-06-19 08:00:00 -- -- -- -- -- -- -- -- --
2020-06-19 07:00:00 -- -- -- -- -- -- -- -- --
2020-06-19 06:00:00 -- -- -- -- -- -- -- -- --
2020-06-19 05:00:00 -- -- -- -- -- -- -- -- --
2020-06-19 04:00:00 -- -- -- -- -- -- -- -- --
2020-06-19 03:00:00 -- -- -- -- -- -- -- -- --
2020-06-19 02:00:00 -- -- -- -- -- -- -- -- --
2020-06-19 01:00:00 -- -- -- -- -- -- -- -- --
2020-06-19 00:00:00 -- -- -- -- -- -- -- -- --
2020-06-18 23:00:00 -- -- -- -- -- -- -- -- --
2020-06-18 22:00:00 -- -- -- -- -- -- -- -- --
2020-06-18 21:00:00 -- -- -- -- -- -- -- -- --
2020-06-18 20:00:00 -- -- -- -- -- -- -- -- --
2020-06-18 19:00:00 -- -- -- -- -- -- -- -- --
2020-06-18 18:00:00 -- -- -- -- -- -- -- -- --
2020-06-18 17:00:00 -- -- -- -- -- -- -- -- --
2020-06-18 16:00:00 -- -- -- -- -- -- -- -- --
2020-06-18 15:00:00 -- -- -- -- -- -- -- -- --
2020-06-18 14:00:00 -- -- -- -- -- -- -- -- --
2020-06-18 13:00:00 -- -- -- -- -- -- -- -- --
2020-06-18 12:00:00 -- -- -- -- -- -- -- -- --
2020-06-18 11:00:00 -- -- -- -- -- -- -- -- --
2020-06-18 10:00:00 -- -- -- -- -- -- -- -- --
2020-06-18 09:00:00 -- -- -- -- -- -- -- -- --
2020-06-18 08:00:00 -- -- -- -- -- -- -- -- --
2020-06-18 07:00:00 -- -- -- -- -- -- -- -- --
2020-06-18 06:00:00 -- -- -- -- -- -- -- -- --
2020-06-18 05:00:00 -- -- -- -- -- -- -- -- --
2020-06-18 04:00:00 -- -- -- -- -- -- -- -- --
2020-06-18 03:00:00 -- -- -- -- -- -- -- -- --
2020-06-18 02:00:00 -- -- -- -- -- -- -- -- --
2020-06-18 01:00:00 -- -- -- -- -- -- -- -- --
2020-06-18 00:00:00 -- -- -- -- -- -- -- -- --
2020-06-17 23:00:00 -- -- -- -- -- -- -- -- --
2020-06-17 22:00:00 -- -- -- -- -- -- -- -- --
2020-06-17 21:00:00 -- -- -- -- -- -- -- -- --
2020-06-17 20:00:00 -- -- -- -- -- -- -- -- --
2020-06-17 19:00:00 -- -- -- -- -- -- -- -- --
2020-06-17 18:00:00 -- -- -- -- -- -- -- -- --
2020-06-17 17:00:00 -- -- -- -- -- -- -- -- --
2020-06-17 16:00:00 -- -- -- -- -- -- -- -- --
2020-06-17 15:00:00 -- -- -- -- -- -- -- -- --
2020-06-17 14:00:00 -- -- -- -- -- -- -- -- --
2020-06-17 13:00:00 -- -- -- -- -- -- -- -- --
2020-06-17 12:00:00 -- -- -- -- -- -- -- -- --
2020-06-17 11:00:00 -- -- -- -- -- -- -- -- --
2020-06-17 10:00:00 -- -- -- -- -- -- -- -- --
2020-06-17 09:00:00 -- -- -- -- -- -- -- -- --
2020-06-17 08:00:00 -- -- -- -- -- -- -- -- --
2020-06-17 07:00:00 -- -- -- -- -- -- -- -- --
2020-06-17 06:00:00 -- -- -- -- -- -- -- -- --
2020-06-17 05:00:00 -- -- -- -- -- -- -- -- --
2020-06-17 04:00:00 -- -- -- -- -- -- -- -- --
2020-06-17 03:00:00 -- -- -- -- -- -- -- -- --
2020-06-17 02:00:00 -- -- -- -- -- -- -- -- --
2020-06-17 01:00:00 -- -- -- -- -- -- -- -- --
2020-06-17 00:00:00 -- -- -- -- -- -- -- -- --
2020-06-16 23:00:00 -- -- -- -- -- -- -- -- --
2020-06-16 22:00:00 -- -- -- -- -- -- -- -- --
2020-06-16 21:00:00 -- -- -- -- -- -- -- -- --
2020-06-16 20:00:00 -- -- -- -- -- -- -- -- --
2020-06-16 19:00:00 -- -- -- -- -- -- -- -- --
2020-06-16 18:00:00 -- -- -- -- -- -- -- -- --
2020-06-16 17:00:00 -- -- -- -- -- -- -- -- --
2020-06-16 16:00:00 -- -- -- -- -- -- -- -- --
2020-06-16 15:00:00 -- -- -- -- -- -- -- -- --
2020-06-16 14:00:00 -- -- -- -- -- -- -- -- --
2020-06-16 13:00:00 -- -- -- -- -- -- -- -- --
2020-06-16 12:00:00 -- -- -- -- -- -- -- -- --
2020-06-16 11:00:00 -- -- -- -- -- -- -- -- --
2020-06-16 10:00:00 -- -- -- -- -- -- -- -- --
2020-06-16 09:00:00 -- -- -- -- -- -- -- -- --
2020-06-16 08:00:00 -- -- -- -- -- -- -- -- --
2020-06-16 07:00:00 -- -- -- -- -- -- -- -- --
2020-06-16 06:00:00 -- -- -- -- -- -- -- -- --
2020-06-16 05:00:00 -- -- -- -- -- -- -- -- --
2020-06-16 04:00:00 -- -- -- -- -- -- -- -- --
2020-06-16 03:00:00 -- -- -- -- -- -- -- -- --
2020-06-16 02:00:00 -- -- -- -- -- -- -- -- --
2020-06-16 01:00:00 -- -- -- -- -- -- -- -- --
2020-06-16 00:00:00 -- -- -- -- -- -- -- -- --
2020-06-15 23:00:00 -- -- -- -- -- -- -- -- --
2020-06-15 22:00:00 -- -- -- -- -- -- -- -- --
2020-06-15 21:00:00 -- -- -- -- -- -- -- -- --
2020-06-15 20:00:00 -- -- -- -- -- -- -- -- --
2020-06-15 19:00:00 -- -- -- -- -- -- -- -- --
2020-06-15 18:00:00 -- -- -- -- -- -- -- -- --
2020-06-15 17:00:00 -- -- -- -- -- -- -- -- --
2020-06-15 16:00:00 -- -- -- -- -- -- -- -- --
2020-06-15 15:00:00 -- -- -- -- -- -- -- -- --
2020-06-15 14:00:00 -- -- -- -- -- -- -- -- --
2020-06-15 13:00:00 -- -- -- -- -- -- -- -- --
2020-06-15 12:00:00 -- -- -- -- -- -- -- -- --
2020-06-15 11:00:00 -- -- -- -- -- -- -- -- --
2020-06-15 10:00:00 -- -- -- -- -- -- -- -- --
2020-06-15 09:00:00 -- -- -- -- -- -- -- -- --
2020-06-15 08:00:00 -- -- -- -- -- -- -- -- --
2020-06-15 07:00:00 -- -- -- -- -- -- -- -- --
2020-06-15 06:00:00 -- -- -- -- -- -- -- -- --
2020-06-15 05:00:00 -- -- -- -- -- -- -- -- --
2020-06-15 04:00:00 -- -- -- -- -- -- -- -- --
2020-06-15 03:00:00 -- -- -- -- -- -- -- -- --
2020-06-15 02:00:00 -- -- -- -- -- -- -- -- --
2020-06-15 01:00:00 -- -- -- -- -- -- -- -- --
2020-06-15 00:00:00 -- -- -- -- -- -- -- -- --
2020-06-14 23:00:00 -- -- -- -- -- -- -- -- --
2020-06-14 22:00:00 -- -- -- -- -- -- -- -- --
2020-06-14 21:00:00 -- -- -- -- -- -- -- -- --
2020-06-14 20:00:00 -- -- -- -- -- -- -- -- --
2020-06-14 19:00:00 -- -- -- -- -- -- -- -- --
2020-06-14 18:00:00 -- -- -- -- -- -- -- -- --
2020-06-14 17:00:00 -- -- -- -- -- -- -- -- --
2020-06-14 16:00:00 -- -- -- -- -- -- -- -- --
2020-06-14 15:00:00 -- -- -- -- -- -- -- -- --
2020-06-14 14:00:00 -- -- -- -- -- -- -- -- --
2020-06-14 13:00:00 -- -- -- -- -- -- -- -- --
2020-06-14 12:00:00 -- -- -- -- -- -- -- -- --
2020-06-14 11:00:00 -- -- -- -- -- -- -- -- --
2020-06-14 10:00:00 -- -- -- -- -- -- -- -- --
2020-06-14 09:00:00 -- -- -- -- -- -- -- -- --
2020-06-14 08:00:00 -- -- -- -- -- -- -- -- --
2020-06-14 07:00:00 -- -- -- -- -- -- -- -- --
2020-06-14 06:00:00 -- -- -- -- -- -- -- -- --
2020-06-14 05:00:00 -- -- -- -- -- -- -- -- --
2020-06-14 04:00:00 -- -- -- -- -- -- -- -- --
2020-06-14 03:00:00 -- -- -- -- -- -- -- -- --
2020-06-14 02:00:00 -- -- -- -- -- -- -- -- --
2020-06-14 01:00:00 -- -- -- -- -- -- -- -- --
2020-06-14 00:00:00 -- -- -- -- -- -- -- -- --
2020-06-13 23:00:00 -- -- -- -- -- -- -- -- --
2020-06-13 22:00:00 -- -- -- -- -- -- -- -- --
2020-06-13 21:00:00 -- -- -- -- -- -- -- -- --
2020-06-13 20:00:00 -- -- -- -- -- -- -- -- --
2020-06-13 19:00:00 -- -- -- -- -- -- -- -- --
2020-06-13 18:00:00 -- -- -- -- -- -- -- -- --
2020-06-13 17:00:00 -- -- -- -- -- -- -- -- --
2020-06-13 16:00:00 -- -- -- -- -- -- -- -- --
2020-06-13 15:00:00 -- -- -- -- -- -- -- -- --
2020-06-13 14:00:00 -- -- -- -- -- -- -- -- --
2020-06-13 13:00:00 -- -- -- -- -- -- -- -- --
2020-06-13 12:00:00 -- -- -- -- -- -- -- -- --
2020-06-13 11:00:00 -- -- -- -- -- -- -- -- --
2020-06-13 10:00:00 -- -- -- -- -- -- -- -- --
2020-06-13 09:00:00 -- -- -- -- -- -- -- -- --
2020-06-13 08:00:00 -- -- -- -- -- -- -- -- --
2020-06-13 07:00:00 -- -- -- -- -- -- -- -- --
2020-06-13 06:00:00 -- -- -- -- -- -- -- -- --
2020-06-13 05:00:00 -- -- -- -- -- -- -- -- --
2020-06-13 04:00:00 -- -- -- -- -- -- -- -- --
2020-06-13 03:00:00 -- -- -- -- -- -- -- -- --
2020-06-13 02:00:00 -- -- -- -- -- -- -- -- --
2020-06-13 01:00:00 -- -- -- -- -- -- -- -- --
2020-06-13 00:00:00 -- -- -- -- -- -- -- -- --
2020-06-12 23:00:00 -- -- -- -- -- -- -- -- --
2020-06-12 22:00:00 -- -- -- -- -- -- -- -- --
2020-06-12 21:00:00 -- -- -- -- -- -- -- -- --
2020-06-12 20:00:00 -- -- -- -- -- -- -- -- --
2020-06-12 19:00:00 -- -- -- -- -- -- -- -- --
2020-06-12 18:00:00 -- -- -- -- -- -- -- -- --
2020-06-12 17:00:00 -- -- -- -- -- -- -- -- --
2020-06-12 16:00:00 -- -- -- -- -- -- -- -- --
2020-06-12 15:00:00 -- -- -- -- -- -- -- -- --
2020-06-12 14:00:00 -- -- -- -- -- -- -- -- --
2020-06-12 13:00:00 -- -- -- -- -- -- -- -- --
2020-06-12 12:00:00 -- -- -- -- -- -- -- -- --
2020-06-12 11:00:00 -- -- -- -- -- -- -- -- --
2020-06-12 10:00:00 -- -- -- -- -- -- -- -- --
2020-06-12 09:00:00 -- -- -- -- -- -- -- -- --
2020-06-12 08:00:00 -- -- -- -- -- -- -- -- --
2020-06-12 07:00:00 -- -- -- -- -- -- -- -- --
2020-06-12 06:00:00 -- -- -- -- -- -- -- -- --
2020-06-12 05:00:00 -- -- -- -- -- -- -- -- --
2020-06-12 04:00:00 -- -- -- -- -- -- -- -- --
2020-06-12 03:00:00 -- -- -- -- -- -- -- -- --
2020-06-12 02:00:00 -- -- -- -- -- -- -- -- --
2020-06-12 01:00:00 -- -- -- -- -- -- -- -- --
2020-06-12 00:00:00 -- -- -- -- -- -- -- -- --
2020-06-11 23:00:00 -- -- -- -- -- -- -- -- --
2020-06-11 22:00:00 -- -- -- -- -- -- -- -- --
2020-06-11 21:00:00 -- -- -- -- -- -- -- -- --
2020-06-11 20:00:00 -- -- -- -- -- -- -- -- --
2020-06-11 19:00:00 -- -- -- -- -- -- -- -- --
2020-06-11 18:00:00 -- -- -- -- -- -- -- -- --
2020-06-11 17:00:00 -- -- -- -- -- -- -- -- --
2020-06-11 16:00:00 -- -- -- -- -- -- -- -- --
2020-06-11 15:00:00 -- -- -- -- -- -- -- -- --
2020-06-11 14:00:00 -- -- -- -- -- -- -- -- --
2020-06-11 13:00:00 -- -- -- -- -- -- -- -- --
2020-06-11 12:00:00 -- -- -- -- -- -- -- -- --
2020-06-11 11:00:00 -- -- -- -- -- -- -- -- --
2020-06-11 10:00:00 -- -- -- -- -- -- -- -- --
2020-06-11 09:00:00 -- -- -- -- -- -- -- -- --
2020-06-11 08:00:00 -- -- -- -- -- -- -- -- --
2020-06-11 07:00:00 -- -- -- -- -- -- -- -- --
2020-06-11 06:00:00 -- -- -- -- -- -- -- -- --
2020-06-11 05:00:00 -- -- -- -- -- -- -- -- --
2020-06-11 04:00:00 -- -- -- -- -- -- -- -- --
2020-06-11 03:00:00 -- -- -- -- -- -- -- -- --
2020-06-11 02:00:00 -- -- -- -- -- -- -- -- --
2020-06-11 01:00:00 -- -- -- -- -- -- -- -- --
2020-06-11 00:00:00 -- -- -- -- -- -- -- -- --
2020-06-10 23:00:00 -- -- -- -- -- -- -- -- --
2020-06-10 22:00:00 -- -- -- -- -- -- -- -- --
2020-06-10 21:00:00 -- -- -- -- -- -- -- -- --
2020-06-10 20:00:00 -- -- -- -- -- -- -- -- --
2020-06-10 19:00:00 -- -- -- -- -- -- -- -- --
2020-06-10 18:00:00 -- -- -- -- -- -- -- -- --
2020-06-10 17:00:00 -- -- -- -- -- -- -- -- --
2020-06-10 16:00:00 -- -- -- -- -- -- -- -- --
2020-06-10 15:00:00 -- -- -- -- -- -- -- -- --
2020-06-10 14:00:00 -- -- -- -- -- -- -- -- --
2020-06-10 13:00:00 -- -- -- -- -- -- -- -- --
2020-06-10 12:00:00 -- -- -- -- -- -- -- -- --
2020-06-10 11:00:00 -- -- -- -- -- -- -- -- --
2020-06-10 10:00:00 -- -- -- -- -- -- -- -- --
2020-06-10 09:00:00 -- -- -- -- -- -- -- -- --
2020-06-10 08:00:00 -- -- -- -- -- -- -- -- --
2020-06-10 07:00:00 -- -- -- -- -- -- -- -- --
2020-06-10 06:00:00 -- -- -- -- -- -- -- -- --
2020-06-10 05:00:00 -- -- -- -- -- -- -- -- --
2020-06-10 04:00:00 -- -- -- -- -- -- -- -- --
2020-06-10 03:00:00 -- -- -- -- -- -- -- -- --
2020-06-10 02:00:00 -- -- -- -- -- -- -- -- --
2020-06-10 01:00:00 -- -- -- -- -- -- -- -- --
2020-06-10 00:00:00 -- -- -- -- -- -- -- -- --